createdAt,value
2019-05-18T11:36:38.885Z,2.6
2019-05-18T12:02:55.677Z,2.8
2019-05-18T12:18:43.417Z,2.7
2019-05-18T12:28:54.845Z,2.4
2019-05-18T12:31:28.008Z,2.4
2019-05-18T12:34:01.066Z,3.1
2019-05-18T12:36:34.316Z,2.9
2019-05-18T12:38:03.912Z,2.5
2019-05-18T12:40:35.249Z,3.9
2019-05-18T12:42:36.207Z,3.6
2019-05-18T12:44:36.079Z,2.2
2019-05-18T12:46:36.124Z,1.8
2019-05-18T12:48:35.915Z,1.8
2019-05-18T12:50:35.944Z,2.5
2019-05-18T12:52:35.830Z,2.4
2019-05-18T12:54:47.149Z,1.5
2019-05-18T12:56:36.069Z,2.3
2019-05-18T12:58:37.948Z,2.7
2019-05-18T13:00:35.915Z,2.3
2019-05-18T13:02:35.975Z,2.3
2019-05-18T13:04:35.837Z,2.3
2019-05-18T13:06:35.808Z,1.8
2019-05-18T13:08:35.738Z,1.9
2019-05-18T13:10:35.608Z,2.6
2019-05-18T13:12:35.603Z,1.9
2019-05-18T13:14:35.452Z,1.4
2019-05-18T13:18:35.601Z,2.5
2019-05-18T13:20:35.479Z,1.4
2019-05-18T13:22:35.413Z,1.8
2019-05-18T13:24:45.769Z,2.0
2019-05-18T13:26:35.746Z,1.4
2019-05-18T13:28:35.614Z,1.5
2019-05-18T13:30:35.724Z,1.2
2019-05-18T13:32:35.695Z,1.5
2019-05-18T13:34:35.753Z,2.2
2019-05-18T13:36:35.638Z,2.5
2019-05-18T13:38:35.567Z,2.2
2019-05-18T13:40:35.396Z,1.8
2019-05-18T13:42:35.381Z,2.1
2019-05-18T13:44:38.366Z,2.1
2019-05-18T13:46:36.222Z,2.3
2019-05-18T13:48:36.051Z,1.8
2019-05-18T13:50:35.951Z,2.7
2019-05-18T13:52:35.994Z,2.4
2019-05-18T13:54:35.807Z,1.7
2019-05-18T13:56:40.076Z,1.5
2019-05-18T13:58:35.955Z,1.8
2019-05-18T14:02:36.211Z,2.9
2019-05-18T14:04:36.241Z,3.3
2019-05-18T14:06:36.098Z,2.5
2019-05-18T14:08:36.082Z,2.5
2019-05-18T14:10:36.051Z,1.4
2019-05-18T14:12:36.200Z,1.3
2019-05-18T14:14:36.213Z,1.7
2019-05-18T14:16:36.233Z,1.3
2019-05-18T14:18:35.569Z,1.0
2019-05-18T14:20:35.708Z,1.1
2019-05-18T14:22:35.766Z,1.2
2019-05-18T14:24:35.707Z,1.7
2019-05-18T14:26:35.605Z,1.4
2019-05-18T14:28:35.573Z,1.5
2019-05-18T14:30:35.485Z,1.0
2019-05-18T14:32:35.417Z,1.0
2019-05-18T14:34:34.928Z,1.0
2019-05-18T14:36:36.022Z,0.8
2019-05-18T14:38:36.079Z,1.0
2019-05-18T14:40:35.908Z,1.3
2019-05-18T14:42:35.855Z,1.0
2019-05-18T14:44:35.838Z,0.9
2019-05-18T14:46:35.716Z,1.0
2019-05-18T14:48:35.692Z,1.0
2019-05-18T14:50:35.470Z,0.8
2019-05-18T14:52:35.510Z,0.9
2019-05-18T14:54:35.458Z,0.9
2019-05-18T14:56:34.916Z,0.8
2019-05-18T14:58:35.856Z,0.8
2019-05-18T15:02:35.764Z,1.0
2019-05-18T15:04:35.629Z,0.9
2019-05-18T15:06:35.652Z,1.3
2019-05-18T15:08:35.658Z,0.8
2019-05-18T15:10:35.697Z,0.7
2019-05-18T15:12:35.672Z,0.9
2019-05-18T15:14:35.649Z,0.8
2019-05-18T15:16:35.616Z,0.6
2019-05-18T15:20:35.577Z,0.5
2019-05-18T15:20:36.158Z,0.5
2019-05-18T15:24:36.146Z,0.6
2019-05-18T15:26:36.250Z,0.6
2019-05-18T15:28:36.361Z,0.5
2019-05-18T15:30:36.504Z,0.6
2019-05-18T15:32:35.537Z,0.7
2019-05-18T15:34:35.662Z,0.6
2019-05-18T15:36:35.696Z,0.6
2019-05-18T15:38:36.073Z,0.7
2019-05-18T15:40:36.245Z,0.6
2019-05-18T15:42:36.212Z,0.4
2019-05-18T15:44:36.132Z,0.4
2019-05-18T15:46:36.029Z,0.6
2019-05-18T15:48:36.290Z,0.6
2019-05-18T15:50:36.357Z,0.5
2019-05-18T15:52:36.230Z,0.4
2019-05-18T15:54:36.560Z,0.6
2019-05-18T15:56:35.588Z,0.6
2019-05-18T15:58:35.513Z,0.5
2019-05-18T16:02:35.680Z,0.5
2019-05-18T16:04:35.474Z,0.5
2019-05-18T16:06:35.473Z,0.7
2019-05-18T16:08:35.557Z,1.1
2019-05-18T16:10:35.636Z,0.7
2019-05-18T16:12:35.708Z,0.6
2019-05-18T16:14:35.637Z,0.4
2019-05-18T16:16:35.522Z,0.6
2019-05-18T16:18:35.493Z,0.5
2019-05-18T16:20:35.126Z,0.6
2019-05-18T16:22:36.021Z,0.7
2019-05-18T16:24:36.385Z,0.5
2019-05-18T16:26:35.418Z,0.6
2019-05-18T16:30:36.434Z,0.6
2019-05-18T16:32:35.480Z,0.5
2019-05-18T16:34:35.027Z,0.6
2019-05-18T16:36:36.070Z,0.7
2019-05-18T16:38:36.125Z,0.5
2019-05-18T16:40:36.219Z,0.4
2019-05-18T16:42:36.269Z,0.5
2019-05-18T16:44:36.385Z,0.5
2019-05-18T16:46:36.478Z,0.6
2019-05-18T16:48:39.660Z,0.6
2019-05-18T16:50:35.795Z,0.5
2019-05-18T16:52:35.970Z,0.5
2019-05-18T16:54:36.121Z,0.5
2019-05-18T16:56:36.163Z,0.6
2019-05-18T16:58:36.241Z,0.5
2019-05-18T17:00:36.155Z,0.5
2019-05-18T17:02:36.101Z,0.7
2019-05-18T17:04:35.990Z,0.5
2019-05-18T17:06:35.939Z,0.6
2019-05-18T17:08:36.118Z,0.7
2019-05-18T17:10:36.005Z,0.7
2019-05-18T17:12:35.943Z,0.8
2019-05-18T17:14:35.948Z,0.7
2019-05-18T17:16:36.048Z,0.8
2019-05-18T17:18:36.238Z,0.7
2019-05-18T17:20:36.152Z,0.6
2019-05-18T17:22:36.312Z,0.6
2019-05-18T17:24:36.275Z,0.9
2019-05-18T17:26:53.077Z,0.8
2019-05-18T17:28:36.247Z,0.9
2019-05-18T17:30:36.417Z,0.9
2019-05-18T17:32:35.597Z,0.7
2019-05-18T17:34:35.532Z,1.0
2019-05-18T17:36:35.367Z,1.1
2019-05-18T17:38:36.358Z,1.3
2019-05-18T17:40:36.405Z,0.8
2019-05-18T17:42:35.424Z,0.9
2019-05-18T17:44:34.885Z,0.9
2019-05-18T17:46:35.737Z,1.2
2019-05-18T17:48:35.676Z,0.8
2019-05-18T17:50:35.504Z,0.7
2019-05-18T17:52:35.481Z,1.1
2019-05-18T17:54:35.454Z,0.7
2019-05-18T17:56:35.685Z,0.6
2019-05-18T17:58:35.735Z,0.9
2019-05-18T18:00:35.493Z,1.0
2019-05-18T18:02:35.423Z,1.2
2019-05-18T18:04:34.815Z,1.0
2019-05-18T18:06:35.748Z,0.8
2019-05-18T18:08:35.613Z,0.9
2019-05-18T18:10:35.404Z,0.8
2019-05-18T18:12:35.412Z,1.0
2019-05-18T18:14:34.911Z,1.0
2019-05-18T18:16:35.852Z,0.8
2019-05-18T18:18:35.885Z,0.9
2019-05-18T18:20:35.918Z,0.6
2019-05-18T18:22:35.934Z,0.5
2019-05-18T18:24:35.903Z,0.8
2019-05-18T18:26:35.902Z,0.9
2019-05-18T18:28:35.930Z,0.6
2019-05-18T18:32:36.433Z,0.6
2019-05-18T18:34:35.361Z,0.9
2019-05-18T18:36:34.901Z,0.7
2019-05-18T18:38:35.752Z,1.0
2019-05-18T18:40:35.576Z,0.8
2019-05-18T18:42:35.552Z,0.9
2019-05-18T18:44:35.519Z,0.8
2019-05-18T18:46:35.551Z,0.8
2019-05-18T18:48:35.351Z,1.0
2019-05-18T18:50:36.219Z,1.0
2019-05-18T18:52:36.221Z,0.8
2019-05-18T18:54:36.296Z,0.9
2019-05-18T18:56:36.138Z,1.0
2019-05-18T18:58:36.031Z,1.2
2019-05-18T19:00:35.910Z,0.9
2019-05-18T19:02:35.771Z,1.5
2019-05-18T19:04:35.659Z,1.1
2019-05-18T19:06:35.499Z,2.0
2019-05-18T19:08:35.515Z,0.7
2019-05-18T19:10:35.483Z,0.9
2019-05-18T19:12:35.484Z,1.1
2019-05-18T19:14:35.629Z,1.4
2019-05-18T19:16:35.742Z,1.5
2019-05-18T19:18:35.803Z,1.0
2019-05-18T19:20:35.547Z,1.7
2019-05-18T19:22:35.567Z,1.6
2019-05-18T19:24:35.670Z,1.2
